createdAt,value
2019-03-20T00:01:26.560Z,102267.00
2019-03-20T00:03:56.902Z,102277.00
2019-03-20T00:06:27.295Z,102280.00
2019-03-20T00:08:57.480Z,102271.00
2019-03-20T00:11:27.809Z,102290.00
2019-03-20T00:13:58.046Z,102286.00
2019-03-20T00:16:28.681Z,102291.00
2019-03-20T00:18:59.486Z,102281.00
2019-03-20T00:21:31.145Z,102278.00
2019-03-20T00:24:01.872Z,102275.00
2019-03-20T00:26:32.611Z,102274.00
2019-03-20T00:29:03.176Z,102272.00
2019-03-20T00:31:33.679Z,102266.00
2019-03-20T00:34:03.961Z,102266.00
2019-03-20T00:36:34.250Z,102267.00
2019-03-20T00:39:06.055Z,102261.00
2019-03-20T00:41:36.434Z,102256.00
2019-03-20T00:44:07.055Z,102262.00
2019-03-20T00:46:37.343Z,102265.00
2019-03-20T00:49:07.509Z,102261.00
2019-03-20T00:51:37.835Z,102257.00
2019-03-20T00:54:08.197Z,102263.00
2019-03-20T00:56:38.414Z,102263.00
2019-03-20T00:59:09.003Z,102275.00
2019-03-20T01:01:39.181Z,102263.00
2019-03-20T01:04:09.490Z,102269.00
2019-03-20T01:06:39.750Z,102275.00
2019-03-20T01:09:10.036Z,102274.00
2019-03-20T01:11:40.337Z,102266.00
2019-03-20T01:14:11.287Z,102272.00
2019-03-20T01:16:41.622Z,102268.00
2019-03-20T01:19:11.989Z,102263.00
2019-03-20T01:21:42.341Z,102259.00
2019-03-20T01:24:12.667Z,102254.00
2019-03-20T01:26:43.250Z,102269.00
2019-03-20T01:29:13.475Z,102270.00
2019-03-20T01:31:44.170Z,102281.00
2019-03-20T01:34:15.293Z,102277.00
2019-03-20T01:36:45.654Z,102280.00
2019-03-20T01:39:16.149Z,102276.00
2019-03-20T01:41:46.397Z,102271.00
2019-03-20T01:44:16.677Z,102278.00
2019-03-20T01:46:47.144Z,102272.00
2019-03-20T01:49:17.490Z,102271.00
2019-03-20T01:51:48.074Z,102272.00
2019-03-20T01:54:18.996Z,102273.00
2019-03-20T01:56:49.983Z,102264.00
2019-03-20T01:59:20.741Z,102271.00
2019-03-20T02:01:51.050Z,102275.00
2019-03-20T02:04:21.417Z,102266.00
2019-03-20T02:06:51.621Z,102261.00
2019-03-20T02:09:22.246Z,102250.00
2019-03-20T02:11:53.472Z,102243.00
2019-03-20T02:14:23.805Z,102255.00
2019-03-20T02:16:54.356Z,102264.00
2019-03-20T02:19:25.202Z,102260.00
2019-03-20T02:21:55.831Z,102266.00
2019-03-20T02:24:26.500Z,102264.00
2019-03-20T02:26:57.175Z,102257.00
2019-03-20T02:29:27.468Z,102248.00
2019-03-20T02:31:57.787Z,102249.00
2019-03-20T02:34:28.321Z,102256.00
2019-03-20T02:37:00.675Z,102238.00
2019-03-20T02:39:30.926Z,102261.00
2019-03-20T02:42:01.537Z,102266.00
2019-03-20T02:44:32.093Z,102269.00
2019-03-20T02:47:02.734Z,102266.00
2019-03-20T02:49:32.887Z,102246.00
2019-03-20T02:52:04.231Z,102261.00
2019-03-20T02:54:34.490Z,102261.00
2019-03-20T02:57:04.826Z,102255.00
2019-03-20T02:59:35.152Z,102263.00
2019-03-20T03:02:05.508Z,102248.00
2019-03-20T03:04:36.579Z,102256.00
2019-03-20T03:07:06.989Z,102255.00
2019-03-20T03:09:37.546Z,102254.00
2019-03-20T03:12:08.179Z,102252.00
2019-03-20T03:14:38.779Z,102262.00
2019-03-20T03:17:09.184Z,102255.00
2019-03-20T03:19:39.544Z,102259.00
2019-03-20T03:22:10.397Z,102258.00
2019-03-20T03:24:40.758Z,102277.00
2019-03-20T03:27:10.999Z,102264.00
2019-03-20T03:29:41.250Z,102267.00
2019-03-20T03:32:11.829Z,102260.00
2019-03-20T03:34:42.157Z,102259.00
2019-03-20T03:37:12.888Z,102261.00
2019-03-20T03:39:43.107Z,102256.00
2019-03-20T03:42:14.670Z,102260.00
2019-03-20T03:44:45.167Z,102251.00
2019-03-20T03:47:15.759Z,102248.00
2019-03-20T03:49:46.061Z,102259.00
2019-03-20T03:52:16.665Z,102238.00
2019-03-20T03:54:46.846Z,102240.00
2019-03-20T03:57:17.285Z,102252.00
2019-03-20T03:59:47.899Z,102254.00
2019-03-20T04:02:18.572Z,102261.00
2019-03-20T04:04:49.223Z,102254.00
2019-03-20T04:07:19.562Z,102259.00
2019-03-20T04:09:50.326Z,102251.00
2019-03-20T04:12:20.624Z,102248.00
2019-03-20T04:14:51.411Z,102264.00
2019-03-20T04:17:27.026Z,102249.00
2019-03-20T04:19:57.469Z,102262.00
2019-03-20T04:22:28.099Z,102255.00
2019-03-20T04:24:58.621Z,102256.00
2019-03-20T04:27:29.190Z,102241.00
2019-03-20T04:29:59.538Z,102252.00
2019-03-20T04:32:30.136Z,102254.00
2019-03-20T04:35:00.670Z,102247.00
2019-03-20T04:37:31.390Z,102265.00
2019-03-20T04:43:48.982Z,102256.00
2019-03-20T04:46:19.580Z,102249.00
2019-03-20T04:48:49.932Z,102264.00
2019-03-20T04:51:20.267Z,102256.00
2019-03-20T04:53:50.569Z,102271.00
2019-03-20T04:56:21.219Z,102259.00
2019-03-20T04:58:51.553Z,102261.00
2019-03-20T05:01:22.174Z,102260.00
2019-03-20T05:03:52.744Z,102252.00
2019-03-20T05:06:23.266Z,102263.00
2019-03-20T05:08:54.802Z,102262.00
2019-03-20T05:11:25.302Z,102286.00
2019-03-20T05:13:55.563Z,102284.00
2019-03-20T05:16:25.764Z,102298.00
2019-03-20T05:18:56.013Z,102298.00
2019-03-20T05:21:26.314Z,102298.00
2019-03-20T05:23:56.752Z,102287.00
2019-03-20T05:26:27.025Z,102294.00
2019-03-20T05:28:58.042Z,102296.00
2019-03-20T05:31:28.281Z,102294.00
2019-03-20T05:33:58.695Z,102299.00
2019-03-20T05:36:28.985Z,102301.00
2019-03-20T05:38:59.337Z,102304.00
2019-03-20T05:41:29.655Z,102297.00
2019-03-20T05:43:59.934Z,102301.00
2019-03-20T05:46:30.497Z,102308.00
2019-03-20T05:49:00.900Z,102313.00
2019-03-20T05:51:31.213Z,102306.00
2019-03-20T05:54:01.483Z,102313.00
2019-03-20T05:56:32.925Z,102314.00
2019-03-20T05:59:03.354Z,102315.00
2019-03-20T06:01:33.694Z,102311.00
2019-03-20T06:04:03.999Z,102312.00
2019-03-20T06:06:34.353Z,102304.00
2019-03-20T06:09:06.613Z,102299.00
2019-03-20T06:11:36.828Z,102303.00
2019-03-20T06:14:07.600Z,102304.00
2019-03-20T06:16:38.235Z,102306.00
2019-03-20T06:19:08.595Z,102315.00
2019-03-20T06:21:38.954Z,102303.00
2019-03-20T06:24:09.284Z,102310.00
2019-03-20T06:26:39.661Z,102308.00
2019-03-20T06:29:09.928Z,102312.00
2019-03-20T06:31:40.313Z,102316.00
2019-03-20T06:34:10.884Z,102312.00
2019-03-20T06:36:41.149Z,102311.00
2019-03-20T06:39:11.453Z,102313.00
2019-03-20T06:41:41.802Z,102314.00
2019-03-20T06:44:14.102Z,102319.00
2019-03-20T06:46:44.685Z,102323.00
2019-03-20T06:49:15.043Z,102311.00
2019-03-20T06:51:45.354Z,102315.00
2019-03-20T06:54:16.346Z,102316.00
2019-03-20T06:56:46.692Z,102325.00
2019-03-20T07:00:37.959Z,102325.00
2019-03-20T07:03:13.876Z,102317.00
2019-03-20T07:06:03.104Z,102327.00
2019-03-20T07:08:41.383Z,102324.00
2019-03-20T07:11:13.786Z,102319.00
2019-03-20T07:13:44.206Z,102334.00
2019-03-20T07:16:14.862Z,102337.00
2019-03-20T07:18:45.454Z,102343.00
2019-03-20T07:21:15.779Z,102343.00
2019-03-20T07:23:46.091Z,102339.00
2019-03-20T07:26:16.481Z,102354.00
2019-03-20T07:28:46.733Z,102348.00
2019-03-20T07:31:16.979Z,102346.00
2019-03-20T07:33:47.289Z,102346.00
2019-03-20T07:36:18.117Z,102353.00
2019-03-20T07:38:48.718Z,102346.00
2019-03-20T07:41:18.987Z,102350.00
2019-03-20T07:43:49.303Z,102357.00
2019-03-20T07:46:19.537Z,102362.00
2019-03-20T07:48:49.897Z,102372.00
2019-03-20T07:51:20.431Z,102372.00
2019-03-20T07:53:50.718Z,102383.00
2019-03-20T07:56:20.905Z,102389.00
2019-03-20T07:58:51.163Z,102406.00
2019-03-20T08:01:21.400Z,102404.00
2019-03-20T08:03:51.688Z,102415.00
2019-03-20T08:06:22.203Z,102407.00
2019-03-20T08:08:52.709Z,102412.00
2019-03-20T08:11:23.010Z,102409.00
2019-03-20T08:13:53.362Z,102416.00
2019-03-20T08:16:24.733Z,102414.00
2019-03-20T08:18:54.910Z,102404.00
2019-03-20T08:21:25.180Z,102403.00
2019-03-20T08:23:55.496Z,102409.00
2019-03-20T08:26:25.811Z,102408.00
2019-03-20T08:28:56.780Z,102420.00
2019-03-20T08:31:27.270Z,102423.00
2019-03-20T08:33:57.883Z,102423.00
2019-03-20T08:36:29.693Z,102427.00
2019-03-20T08:39:06.618Z,102433.00
2019-03-20T08:41:37.438Z,102429.00
2019-03-20T08:44:08.055Z,102429.00
2019-03-20T08:46:38.827Z,102424.00
2019-03-20T08:49:09.364Z,102432.00
2019-03-20T08:51:39.771Z,102428.00
2019-03-20T08:54:11.144Z,102432.00
2019-03-20T08:56:41.939Z,102425.00
2019-03-20T08:59:12.285Z,102434.00
2019-03-20T09:01:42.645Z,102428.00
2019-03-20T09:04:13.475Z,102431.00
2019-03-20T09:06:43.797Z,102426.00
2019-03-20T09:09:16.417Z,102426.00
2019-03-20T09:11:46.879Z,102429.00
2019-03-20T09:14:17.269Z,102424.00
2019-03-20T09:16:48.142Z,102416.00
2019-03-20T09:19:19.414Z,102429.00
2019-03-20T09:21:49.679Z,102427.00
2019-03-20T09:24:20.997Z,102417.00
2019-03-20T09:26:51.377Z,102422.00
2019-03-20T09:29:21.766Z,102427.00
2019-03-20T09:31:52.388Z,102418.00
2019-03-20T09:34:22.767Z,102407.00
2019-03-20T09:36:53.164Z,102412.00
2019-03-20T09:39:23.773Z,102414.00
2019-03-20T09:41:54.126Z,102414.00
2019-03-20T09:44:25.138Z,102411.00
2019-03-20T09:47:00.472Z,102410.00
2019-03-20T09:49:30.792Z,102407.00
2019-03-20T09:52:02.254Z,102417.00
2019-03-20T09:54:35.365Z,102418.00
2019-03-20T09:57:05.983Z,102415.00
2019-03-20T09:59:36.293Z,102404.00
2019-03-20T10:02:06.650Z,102413.00
2019-03-20T10:04:37.764Z,102410.00
2019-03-20T10:07:08.102Z,102420.00
2019-03-20T10:09:38.370Z,102422.00
2019-03-20T10:12:08.624Z,102414.00
2019-03-20T10:14:39.000Z,102416.00
2019-03-20T10:17:09.351Z,102418.00
2019-03-20T10:19:39.631Z,102413.00
2019-03-20T10:22:09.911Z,102417.00
2019-03-20T10:24:41.011Z,102418.00
2019-03-20T10:27:11.615Z,102408.00
2019-03-20T10:29:41.993Z,102413.00
2019-03-20T10:32:12.721Z,102412.00
2019-03-20T10:34:43.073Z,102415.00
2019-03-20T10:37:13.409Z,102413.00
2019-03-20T10:39:43.729Z,102425.00
2019-03-20T10:42:14.145Z,102422.00
2019-03-20T10:44:44.505Z,102426.00
2019-03-20T10:47:15.100Z,102441.00
2019-03-20T10:49:45.889Z,102441.00
2019-03-20T10:52:16.176Z,102433.00
2019-03-20T10:54:46.973Z,102431.00
2019-03-20T10:57:17.229Z,102440.00
2019-03-20T10:59:47.478Z,102440.00
2019-03-20T11:02:17.686Z,102429.00
2019-03-20T11:04:47.996Z,102436.00
2019-03-20T11:07:18.224Z,102441.00
2019-03-20T11:09:48.784Z,102432.00
2019-03-20T11:12:18.876Z,102426.00
2019-03-20T11:14:49.396Z,102434.00
2019-03-20T11:17:19.791Z,102436.00
2019-03-20T11:19:50.488Z,102441.00
2019-03-20T11:22:20.854Z,102440.00
2019-03-20T11:24:51.242Z,102447.00
2019-03-20T11:27:22.185Z,102452.00
2019-03-20T11:29:52.756Z,102460.00
2019-03-20T11:32:23.137Z,102454.00
2019-03-20T11:34:53.725Z,102456.00
2019-03-20T11:37:23.983Z,102453.00
2019-03-20T11:39:54.841Z,102458.00
2019-03-20T11:42:25.039Z,102460.00
2019-03-20T11:44:56.308Z,102453.00
2019-03-20T11:47:26.789Z,102453.00
2019-03-20T11:49:57.407Z,102456.00
2019-03-20T11:52:28.267Z,102455.00
2019-03-20T11:54:58.838Z,102467.00
2019-03-20T11:57:29.091Z,102460.00
2019-03-20T11:59:59.505Z,102469.00
2019-03-20T12:02:30.104Z,102471.00
2019-03-20T12:05:00.482Z,102465.00
2019-03-20T12:07:30.738Z,102462.00
2019-03-20T12:10:02.406Z,102465.00
2019-03-20T12:12:32.735Z,102467.00
2019-03-20T12:15:03.041Z,102472.00
2019-03-20T12:17:34.440Z,102479.00
2019-03-20T12:20:06.726Z,102484.00
2019-03-20T12:22:37.342Z,102484.00
2019-03-20T12:25:12.528Z,102489.00
2019-03-20T12:27:42.876Z,102486.00
2019-03-20T12:30:16.577Z,102491.00
2019-03-20T12:32:47.263Z,102489.00
2019-03-20T12:35:17.847Z,102495.00
2019-03-20T12:37:49.398Z,102476.00
2019-03-20T12:40:25.810Z,102475.00
2019-03-20T12:42:56.563Z,102481.00
2019-03-20T12:45:29.812Z,102490.00
2019-03-20T12:48:01.184Z,102486.00
2019-03-20T12:50:32.770Z,102478.00
2019-03-20T12:53:06.856Z,102481.00
2019-03-20T12:55:38.132Z,102486.00
2019-03-20T12:58:08.308Z,102476.00
2019-03-20T13:00:39.863Z,102474.00
2019-03-20T13:05:41.076Z,102476.00
2019-03-20T13:08:11.641Z,102484.00
2019-03-20T13:10:42.474Z,102480.00
2019-03-20T13:13:12.819Z,102479.00
2019-03-20T13:15:43.075Z,102471.00
2019-03-20T13:18:13.603Z,102472.00
2019-03-20T13:20:43.805Z,102469.00
2019-03-20T13:23:16.402Z,102469.00
2019-03-20T13:25:46.703Z,102469.00
2019-03-20T13:28:17.130Z,102465.00
2019-03-20T13:30:58.649Z,102462.00
2019-03-20T13:33:29.253Z,102466.00
2019-03-20T13:35:59.604Z,102470.00
2019-03-20T13:38:29.740Z,102472.00
2019-03-20T13:41:00.119Z,102469.00
2019-03-20T13:43:30.378Z,102470.00
2019-03-20T13:46:01.300Z,102473.00
2019-03-20T13:48:31.595Z,102459.00
2019-03-20T13:51:02.874Z,102470.00
2019-03-20T13:53:33.143Z,102465.00
2019-03-20T13:56:03.275Z,102471.00
2019-03-20T13:58:33.529Z,102474.00
2019-03-20T14:01:03.802Z,102470.00
2019-03-20T14:03:34.089Z,102485.00
2019-03-20T14:06:04.615Z,102481.00
2019-03-20T14:08:34.940Z,102476.00
2019-03-20T14:11:05.611Z,102470.00
2019-03-20T14:13:35.901Z,102468.00
2019-03-20T14:16:06.228Z,102475.00
2019-03-20T14:18:36.749Z,102469.00
2019-03-20T14:21:07.593Z,102492.00
2019-03-20T14:23:38.153Z,102479.00
2019-03-20T14:26:08.573Z,102481.00
2019-03-20T14:28:39.235Z,102474.00
2019-03-20T14:31:09.539Z,102470.00
2019-03-20T14:33:40.069Z,102471.00
2019-03-20T14:36:10.558Z,102471.00
2019-03-20T14:38:41.281Z,102463.00
2019-03-20T14:41:21.139Z,102463.00
2019-03-20T14:43:43.681Z,102474.00
2019-03-20T14:46:14.258Z,102469.00
2019-03-20T14:48:44.907Z,102464.00
2019-03-20T14:51:15.547Z,102468.00
2019-03-20T14:53:46.191Z,102475.00
2019-03-20T14:56:18.278Z,102469.00
2019-03-20T14:58:49.166Z,102471.00
2019-03-20T15:01:19.495Z,102460.00
2019-03-20T15:03:49.890Z,102466.00
2019-03-20T15:06:20.239Z,102464.00
2019-03-20T15:08:50.801Z,102459.00
2019-03-20T15:11:21.178Z,102463.00
2019-03-20T15:13:51.723Z,102469.00
2019-03-20T15:16:22.470Z,102459.00
2019-03-20T15:18:52.731Z,102457.00
2019-03-20T15:21:22.868Z,102450.00
2019-03-20T15:23:53.358Z,102456.00
2019-03-20T15:26:23.917Z,102452.00
2019-03-20T15:28:54.115Z,102450.00
2019-03-20T15:31:24.694Z,102452.00
2019-03-20T15:33:55.483Z,102450.00
2019-03-20T15:36:25.798Z,102447.00
2019-03-20T15:38:56.070Z,102450.00
2019-03-20T15:41:26.654Z,102448.00
2019-03-20T15:44:02.466Z,102447.00
2019-03-20T15:46:29.495Z,102448.00
2019-03-20T15:48:59.790Z,102447.00
2019-03-20T15:51:30.095Z,102442.00
2019-03-20T15:54:00.709Z,102446.00
2019-03-20T15:56:31.035Z,102453.00
2019-03-20T15:59:01.314Z,102445.00
2019-03-20T16:01:31.636Z,102445.00
2019-03-20T16:04:02.374Z,102449.00
2019-03-20T16:06:32.708Z,102450.00
2019-03-20T16:09:03.973Z,102459.00
2019-03-20T16:11:34.509Z,102461.00
2019-03-20T16:14:05.060Z,102457.00
2019-03-20T16:16:35.301Z,102457.00
2019-03-20T16:19:06.059Z,102466.00
2019-03-20T16:21:36.985Z,102461.00
2019-03-20T16:24:07.471Z,102468.00
2019-03-20T16:26:40.020Z,102457.00
2019-03-20T16:29:10.267Z,102472.00
2019-03-20T16:31:40.403Z,102454.00
2019-03-20T16:34:10.608Z,102473.00
2019-03-20T16:36:40.946Z,102465.00
2019-03-20T16:39:11.636Z,102461.00
2019-03-20T16:41:42.216Z,102459.00
2019-03-20T16:44:12.504Z,102460.00
2019-03-20T16:46:44.711Z,102465.00
2019-03-20T16:49:15.740Z,102463.00
2019-03-20T16:51:46.059Z,102477.00
2019-03-20T16:54:16.404Z,102474.00
2019-03-20T16:56:46.778Z,102472.00
2019-03-20T16:59:17.538Z,102478.00
2019-03-20T17:01:50.274Z,102480.00
2019-03-20T17:04:21.219Z,102480.00
2019-03-20T17:06:52.259Z,102492.00
2019-03-20T17:09:22.912Z,102491.00
2019-03-20T17:11:53.263Z,102483.00
2019-03-20T17:14:23.625Z,102481.00
2019-03-20T17:16:54.155Z,102478.00
2019-03-20T17:19:25.206Z,102480.00
2019-03-20T17:21:55.475Z,102473.00
2019-03-20T17:24:28.221Z,102471.00
2019-03-20T17:26:58.498Z,102476.00
2019-03-20T17:29:28.695Z,102476.00
2019-03-20T17:31:58.873Z,102471.00
2019-03-20T17:34:30.652Z,102477.00
2019-03-20T17:37:00.972Z,102484.00
2019-03-20T17:39:31.320Z,102494.00
2019-03-20T17:42:01.634Z,102487.00
2019-03-20T17:44:31.960Z,102484.00
2019-03-20T17:47:02.287Z,102479.00
2019-03-20T17:49:32.530Z,102482.00
2019-03-20T17:52:02.973Z,102485.00
2019-03-20T17:54:33.508Z,102494.00
2019-03-20T17:57:04.061Z,102497.00
2019-03-20T17:59:34.965Z,102490.00
2019-03-20T18:02:05.582Z,102498.00
2019-03-20T18:04:36.423Z,102500.00
2019-03-20T18:07:09.044Z,102508.00
2019-03-20T18:09:44.553Z,102519.00
2019-03-20T18:12:15.512Z,102519.00
2019-03-20T18:14:46.121Z,102519.00
2019-03-20T18:17:17.025Z,102516.00
2019-03-20T18:19:47.173Z,102515.00
2019-03-20T18:22:20.128Z,102514.00
2019-03-20T18:24:51.013Z,102518.00
2019-03-20T18:27:31.249Z,102512.00
2019-03-20T18:30:01.873Z,102519.00
2019-03-20T18:32:32.212Z,102529.00
2019-03-20T18:35:02.398Z,102522.00
2019-03-20T18:37:32.698Z,102532.00
2019-03-20T18:40:03.577Z,102533.00
2019-03-20T18:42:41.694Z,102534.00
2019-03-20T18:45:13.917Z,102534.00
2019-03-20T18:47:44.208Z,102531.00
2019-03-20T18:50:15.890Z,102530.00
2019-03-20T18:52:46.203Z,102532.00
2019-03-20T18:55:16.537Z,102537.00
2019-03-20T18:57:47.107Z,102548.00
2019-03-20T19:00:23.624Z,102541.00
2019-03-20T19:02:57.301Z,102544.00
2019-03-20T19:05:45.589Z,102542.00
2019-03-20T19:08:16.214Z,102548.00
2019-03-20T19:10:46.887Z,102554.00
2019-03-20T19:13:17.286Z,102556.00
2019-03-20T19:15:47.608Z,102559.00
2019-03-20T19:18:17.760Z,102556.00
2019-03-20T19:20:48.295Z,102559.00
2019-03-20T19:23:19.172Z,102552.00
2019-03-20T19:25:49.723Z,102556.00
2019-03-20T19:28:20.041Z,102552.00
2019-03-20T19:30:50.370Z,102549.00
2019-03-20T19:33:20.700Z,102568.00
2019-03-20T19:35:50.961Z,102558.00
2019-03-20T19:38:21.337Z,102561.00
2019-03-20T19:40:51.649Z,102551.00
2019-03-20T19:43:22.895Z,102553.00
2019-03-20T19:45:53.211Z,102551.00
2019-03-20T19:48:23.770Z,102549.00
2019-03-20T19:50:54.011Z,102547.00
2019-03-20T19:53:24.200Z,102548.00
2019-03-20T19:55:54.974Z,102550.00
2019-03-20T19:58:25.352Z,102549.00
2019-03-20T20:00:55.697Z,102540.00
2019-03-20T20:03:26.196Z,102546.00
2019-03-20T20:05:56.362Z,102540.00
2019-03-20T20:08:27.723Z,102540.00
2019-03-20T20:10:58.097Z,102537.00
2019-03-20T20:13:28.400Z,102533.00
2019-03-20T20:15:58.616Z,102535.00
2019-03-20T20:18:28.958Z,102536.00
2019-03-20T20:21:01.749Z,102542.00
2019-03-20T20:23:31.387Z,102544.00
2019-03-20T20:26:01.546Z,102544.00
2019-03-20T20:28:31.997Z,102553.00
2019-03-20T20:31:02.460Z,102554.00
2019-03-20T20:33:33.016Z,102561.00
2019-03-20T20:36:03.285Z,102565.00
2019-03-20T20:38:33.546Z,102569.00
2019-03-20T20:41:03.735Z,102572.00
2019-03-20T20:43:33.939Z,102561.00
2019-03-20T20:46:04.181Z,102560.00
2019-03-20T20:48:34.692Z,102565.00
2019-03-20T20:51:05.045Z,102555.00
2019-03-20T20:53:35.328Z,102560.00
2019-03-20T20:56:05.921Z,102550.00
2019-03-20T20:58:36.133Z,102560.00
2019-03-20T21:01:06.590Z,102555.00
2019-03-20T21:03:36.881Z,102560.00
2019-03-20T21:06:07.221Z,102557.00
2019-03-20T21:08:38.831Z,102556.00
2019-03-20T21:11:09.155Z,102545.00
2019-03-20T21:13:39.775Z,102556.00
2019-03-20T21:16:10.818Z,102546.00
2019-03-20T21:19:34.614Z,102554.00
2019-03-20T21:23:01.267Z,102556.00
2019-03-20T21:25:32.326Z,102557.00
2019-03-20T21:29:15.923Z,102566.00
2019-03-20T21:32:09.301Z,102563.00
2019-03-20T21:35:55.241Z,102563.00
2019-03-20T21:38:23.453Z,102572.00
2019-03-20T21:41:50.858Z,102562.00
2019-03-20T21:45:23.449Z,102555.00
2019-03-20T21:47:54.442Z,102573.00
2019-03-20T21:51:21.410Z,102572.00
2019-03-20T21:55:01.632Z,102572.00
2019-03-20T21:58:04.990Z,102575.00
2019-03-20T22:01:29.492Z,102575.00
2019-03-20T22:04:01.602Z,102578.00
2019-03-20T22:07:10.861Z,102579.00
2019-03-20T22:10:35.110Z,102582.00
2019-03-20T22:13:33.700Z,102572.00
2019-03-20T22:16:49.107Z,102588.00
2019-03-20T22:20:07.328Z,102583.00
2019-03-20T22:23:34.092Z,102588.00
2019-03-20T22:27:00.307Z,102584.00
2019-03-20T22:29:31.707Z,102589.00
2019-03-20T22:33:07.934Z,102588.00
2019-03-20T22:36:12.872Z,102578.00
2019-03-20T22:39:52.833Z,102591.00
2019-03-20T22:42:46.673Z,102592.00
2019-03-20T22:46:24.573Z,102587.00
2019-03-20T22:49:44.876Z,102593.00
2019-03-20T22:53:27.044Z,102581.00
2019-03-20T22:57:16.313Z,102595.00
2019-03-20T22:59:47.313Z,102594.00
2019-03-20T23:03:01.994Z,102585.00
2019-03-20T23:05:33.006Z,102586.00
2019-03-20T23:08:13.273Z,102586.00
2019-03-20T23:10:45.360Z,102588.00
2019-03-20T23:13:19.228Z,102583.00
2019-03-20T23:15:50.132Z,102588.00
2019-03-20T23:18:21.216Z,102584.00
2019-03-20T23:20:52.569Z,102583.00
2019-03-20T23:23:24.165Z,102594.00
2019-03-20T23:25:55.932Z,102590.00
2019-03-20T23:28:27.169Z,102592.00
2019-03-20T23:30:59.005Z,102579.00
2019-03-20T23:33:29.942Z,102577.00
2019-03-20T23:36:01.493Z,102583.00
2019-03-20T23:38:32.579Z,102584.00
2019-03-20T23:41:07.014Z,102585.00
2019-03-20T23:43:38.258Z,102603.00
2019-03-20T23:46:09.455Z,102578.00
2019-03-20T23:49:08.920Z,102575.00
2019-03-20T23:51:40.209Z,102585.00
2019-03-20T23:54:11.834Z,102595.00
2019-03-20T23:56:42.868Z,102584.00
2019-03-20T23:59:14.256Z,102589.00
